createdAt,value
2023-06-22T00:00:58.245Z,101601.00
2023-06-22T00:05:09.951Z,101593.34
2023-06-22T00:09:21.642Z,101601.56
2023-06-22T00:13:33.393Z,101589.00
2023-06-22T00:17:45.200Z,101595.00
2023-06-22T00:22:03.646Z,101589.25
2023-06-22T00:26:15.516Z,101580.47
2023-06-22T00:30:27.529Z,101578.03
2023-06-22T00:34:42.824Z,101597.97
2023-06-22T00:38:54.547Z,101578.03
2023-06-22T00:43:06.926Z,101556.97
2023-06-22T00:47:19.244Z,101589.47
2023-06-22T00:51:31.130Z,101567.03
2023-06-22T00:55:45.018Z,101592.16
2023-06-22T00:59:57.349Z,101590.78
2023-06-22T01:04:09.627Z,101603.34
2023-06-22T01:08:39.440Z,101597.25
2023-06-22T01:12:54.784Z,101597.50
2023-06-22T01:17:09.044Z,101569.88
2023-06-22T01:21:22.150Z,101586.00
2023-06-22T01:26:09.757Z,101576.44
2023-06-22T01:30:21.745Z,101578.59
2023-06-22T01:34:34.557Z,101576.66
2023-06-22T01:38:50.973Z,101564.88
2023-06-22T01:43:04.984Z,101575.56
2023-06-22T01:47:16.928Z,101563.81
2023-06-22T01:51:29.037Z,101562.44
2023-06-22T01:55:40.820Z,101572.00
2023-06-22T02:00:05.850Z,101557.53
2023-06-22T02:04:32.617Z,101556.16
2023-06-22T02:08:58.279Z,101570.91
2023-06-22T02:13:11.307Z,101553.41
2023-06-22T02:17:24.546Z,101571.16
2023-06-22T02:21:36.369Z,101568.97
2023-06-22T02:25:48.135Z,101562.13
2023-06-22T02:29:59.919Z,101562.13
2023-06-22T02:34:11.678Z,101554.16
2023-06-22T02:38:25.592Z,101547.06
2023-06-22T02:42:38.664Z,101547.06
2023-06-22T02:46:50.699Z,101539.94
2023-06-22T02:51:03.099Z,101560.13
2023-06-22T02:55:14.968Z,101547.00
2023-06-22T02:59:30.782Z,101545.34
2023-06-22T03:03:50.450Z,101554.34
2023-06-22T03:08:03.588Z,101547.50
2023-06-22T03:12:18.529Z,101539.34
2023-06-22T03:16:36.325Z,101520.25
2023-06-22T03:20:48.104Z,101507.34
2023-06-22T03:24:59.930Z,101519.44
2023-06-22T03:29:12.586Z,101506.56
2023-06-22T03:33:24.354Z,101495.66
2023-06-22T03:37:36.370Z,101517.53
2023-06-22T03:41:48.362Z,101530.63
2023-06-22T03:46:00.227Z,101501.63
2023-06-22T03:50:12.205Z,101500.50
2023-06-22T03:54:23.985Z,101487.66
2023-06-22T03:58:37.904Z,101483.75
2023-06-22T04:02:49.802Z,101522.09
2023-06-22T04:07:01.695Z,101493.63
2023-06-22T04:11:13.421Z,101485.44
2023-06-22T04:15:25.248Z,101504.88
2023-06-22T04:19:36.991Z,101476.22
2023-06-22T04:23:48.763Z,101502.47
2023-06-22T04:28:00.537Z,101507.00
2023-06-22T04:32:13.873Z,101502.03
2023-06-22T04:36:26.316Z,101504.91
2023-06-22T04:40:38.209Z,101509.19
2023-06-22T04:44:50.349Z,101510.16
2023-06-22T04:49:02.157Z,101502.91
2023-06-22T04:53:14.086Z,101509.94
2023-06-22T04:57:33.219Z,101502.31
2023-06-22T05:01:45.181Z,101514.75
2023-06-22T05:05:56.936Z,101508.91
2023-06-22T05:10:08.822Z,101504.66
2023-06-22T05:14:20.718Z,101512.13
2023-06-22T05:18:33.373Z,101513.69
2023-06-22T05:22:45.448Z,101506.16
2023-06-22T05:26:57.301Z,101498.81
2023-06-22T05:31:09.106Z,101505.69
2023-06-22T05:35:20.924Z,101514.09
2023-06-22T05:39:32.725Z,101512.75
2023-06-22T05:43:44.447Z,101525.09
2023-06-22T05:47:56.243Z,101496.28
2023-06-22T05:52:08.282Z,101525.56
2023-06-22T05:56:20.166Z,101525.50
2023-06-22T06:00:32.122Z,101526.66
2023-06-22T06:04:44.212Z,101524.16
2023-06-22T06:08:56.655Z,101526.50
2023-06-22T06:13:08.473Z,101524.34
2023-06-22T06:17:20.221Z,101536.31
2023-06-22T06:21:31.931Z,101546.00
2023-06-22T06:25:43.780Z,101528.03
2023-06-22T06:29:55.537Z,101487.88
2023-06-22T06:34:07.260Z,101506.91
2023-06-22T06:38:19.062Z,101515.84
2023-06-22T06:42:30.801Z,101509.50
2023-06-22T06:46:43.438Z,101498.75
2023-06-22T06:51:00.381Z,101493.88
2023-06-22T06:55:13.406Z,101496.03
2023-06-22T06:59:25.268Z,101475.47
2023-06-22T07:03:50.217Z,101498.97
2023-06-22T07:08:03.005Z,101484.47
2023-06-22T07:12:14.827Z,101476.19
2023-06-22T07:16:28.962Z,101500.44
2023-06-22T07:20:40.882Z,101476.88
2023-06-22T07:24:52.698Z,101471.94
2023-06-22T07:29:05.470Z,101462.91
2023-06-22T07:33:21.148Z,101479.19
2023-06-22T07:37:34.448Z,101469.06
2023-06-22T07:41:46.227Z,101470.09
2023-06-22T07:45:57.973Z,101462.28
2023-06-22T07:50:10.734Z,101465.72
2023-06-22T07:54:22.553Z,101465.09
2023-06-22T07:58:34.439Z,101460.53
2023-06-22T08:02:47.710Z,101462.03
2023-06-22T08:06:59.614Z,101445.75
2023-06-22T08:11:11.325Z,101438.09
2023-06-22T08:15:23.286Z,101439.13
2023-06-22T08:19:35.093Z,101420.81
2023-06-22T08:23:46.855Z,101423.25
2023-06-22T08:27:58.563Z,101412.56
2023-06-22T08:32:11.055Z,101404.28
2023-06-22T08:36:23.144Z,101390.84
2023-06-22T08:40:35.063Z,101397.72
2023-06-22T08:44:46.891Z,101400.19
2023-06-22T08:49:00.314Z,101408.78
2023-06-22T08:53:12.177Z,101390.38
2023-06-22T08:57:24.036Z,101386.97
2023-06-22T09:01:35.849Z,101405.28
2023-06-22T09:10:41.123Z,101403.53
2023-06-22T11:29:58.761Z,101347.63
2023-06-22T11:34:10.391Z,101344.69
2023-06-22T11:38:22.042Z,101357.44
2023-06-22T11:42:33.690Z,101351.66
2023-06-22T11:46:45.388Z,101355.25
2023-06-22T11:50:59.069Z,101358.13
2023-06-22T11:55:11.839Z,101361.34
2023-06-22T11:59:23.524Z,101364.50
2023-06-22T12:03:35.266Z,101357.72
2023-06-22T12:07:47.051Z,101353.91
2023-06-22T12:11:58.704Z,101347.66
2023-06-22T12:16:10.350Z,101341.50
2023-06-22T12:20:23.425Z,101336.16
2023-06-22T12:24:35.664Z,101336.06
2023-06-22T12:28:48.711Z,101328.66
2023-06-22T12:33:00.435Z,101338.25
2023-06-22T12:37:12.235Z,101331.81
2023-06-22T12:41:23.968Z,101330.47
2023-06-22T12:45:35.908Z,101329.72
2023-06-22T12:49:47.581Z,101319.47
2023-06-22T12:53:59.418Z,101299.47
2023-06-22T12:58:11.276Z,101273.59
2023-06-22T13:02:23.077Z,101259.50
2023-06-22T13:06:34.881Z,101262.03
2023-06-22T13:10:46.802Z,101285.63
2023-06-22T13:14:58.541Z,101277.50
2023-06-22T13:19:11.075Z,101272.47
2023-06-22T13:23:23.054Z,101276.19
2023-06-22T13:27:34.798Z,101270.13
2023-06-22T13:31:46.540Z,101265.97
2023-06-22T13:35:58.244Z,101258.63
2023-06-22T13:40:41.072Z,101264.63
2023-06-22T13:44:52.852Z,101234.63
2023-06-22T13:49:04.552Z,101220.63
2023-06-22T13:53:16.639Z,101233.91
2023-06-22T13:57:28.457Z,101217.00
2023-06-22T14:01:41.100Z,101224.28
2023-06-22T14:05:55.401Z,101205.63
2023-06-22T14:10:07.774Z,101222.06
2023-06-22T14:14:19.584Z,101210.06
2023-06-22T14:18:33.437Z,101202.78
2023-06-22T14:22:47.388Z,101209.66
2023-06-22T14:26:59.194Z,101206.44
2023-06-22T14:31:13.238Z,101210.38
2023-06-22T14:35:27.524Z,101239.31
2023-06-22T14:39:40.573Z,101207.44
2023-06-22T14:43:52.345Z,101222.69
2023-06-22T14:48:04.125Z,101228.16
2023-06-22T14:52:15.896Z,101226.28
2023-06-22T14:56:27.595Z,101223.88
2023-06-22T15:00:39.326Z,101217.41
2023-06-22T15:04:51.058Z,101211.75
2023-06-22T15:09:02.876Z,101200.41
2023-06-22T15:13:14.746Z,101191.19
2023-06-22T15:17:30.307Z,101197.59
2023-06-22T15:21:42.119Z,101187.81
2023-06-22T15:25:53.926Z,101182.47
2023-06-22T15:30:06.421Z,101161.50
2023-06-22T15:34:18.101Z,101150.88
2023-06-22T15:38:29.841Z,101151.34
2023-06-22T15:42:41.579Z,101145.06
2023-06-22T15:46:54.166Z,101146.34
2023-06-22T15:52:16.642Z,101161.31
2023-06-22T15:56:28.387Z,101157.50
2023-06-22T16:00:40.153Z,101150.66
2023-06-22T16:04:51.964Z,101149.56
2023-06-22T16:09:05.586Z,101144.66
2023-06-22T16:13:17.441Z,101146.59
2023-06-22T16:17:30.341Z,101137.28
2023-06-22T16:21:43.054Z,101131.25
2023-06-22T16:25:54.741Z,101134.19
2023-06-22T16:30:08.109Z,101138.53
2023-06-22T16:34:19.962Z,101144.25
2023-06-22T16:38:31.602Z,101132.25
2023-06-22T16:42:46.408Z,101122.41
2023-06-22T16:47:02.399Z,101134.16
2023-06-22T16:51:14.076Z,101136.28
2023-06-22T16:55:25.956Z,101150.50
2023-06-22T16:59:37.637Z,101159.47
2023-06-22T17:04:11.026Z,101168.22
2023-06-22T17:08:23.717Z,101180.25
2023-06-22T17:12:35.406Z,101174.31
2023-06-22T17:16:49.314Z,101169.66
2023-06-22T17:21:00.947Z,101182.16
2023-06-22T17:25:20.062Z,101189.81
2023-06-22T17:29:32.854Z,101183.00
2023-06-22T17:33:44.629Z,101168.81
2023-06-22T17:37:58.164Z,101157.09
2023-06-22T17:42:09.873Z,101148.66
2023-06-22T17:46:21.996Z,101152.81
2023-06-22T17:50:39.046Z,101138.34
2023-06-22T17:55:09.833Z,101141.66
2023-06-22T17:59:22.932Z,101134.34
2023-06-22T18:03:34.856Z,101133.84
2023-06-22T18:07:47.131Z,101147.03
2023-06-22T18:12:03.264Z,101156.59
2023-06-22T18:16:15.063Z,101145.09
2023-06-22T18:20:28.354Z,101144.84
2023-06-22T18:24:41.620Z,101145.66
2023-06-22T18:28:54.948Z,101161.25
2023-06-22T18:33:06.684Z,101168.09
2023-06-22T18:37:23.465Z,101171.63
2023-06-22T18:41:41.452Z,101166.69
2023-06-22T18:45:53.378Z,101161.50
2023-06-22T18:50:07.420Z,101154.44
2023-06-22T18:54:39.429Z,101162.41
2023-06-22T18:59:00.143Z,101180.16
2023-06-22T19:03:30.709Z,101171.16
2023-06-22T19:07:55.113Z,101176.09
2023-06-22T19:12:27.147Z,101172.31
2023-06-22T19:16:40.132Z,101171.81
2023-06-22T19:21:03.548Z,101178.34
2023-06-22T19:25:23.663Z,101190.66
2023-06-22T19:29:36.271Z,101190.91
2023-06-22T19:33:51.783Z,101193.13
2023-06-22T19:38:03.387Z,101180.91
2023-06-22T19:42:17.510Z,101184.16
2023-06-22T19:46:33.526Z,101177.09
2023-06-22T19:50:45.392Z,101187.19
2023-06-22T19:54:57.000Z,101215.28
2023-06-22T19:59:21.491Z,101232.44
2023-06-22T20:03:38.137Z,101238.44
2023-06-22T20:07:49.904Z,101247.66
2023-06-22T20:12:01.700Z,101251.16
2023-06-22T20:16:13.736Z,101252.25
2023-06-22T20:20:28.054Z,101264.75
2023-06-22T20:24:40.038Z,101287.66
2023-06-22T20:28:51.820Z,101289.28
2023-06-22T20:33:06.650Z,101288.16
2023-06-22T20:37:29.230Z,101282.69
2023-06-22T20:41:41.164Z,101288.63
2023-06-22T20:45:55.609Z,101296.47
2023-06-22T20:50:07.802Z,101310.88
2023-06-22T22:15:50.128Z,101353.75
2023-06-22T22:25:12.196Z,101346.44
2023-06-22T22:29:47.445Z,101332.69
2023-06-22T22:34:43.160Z,101351.16
2023-06-22T22:39:54.539Z,101364.88
2023-06-22T22:44:36.257Z,101391.56
2023-06-22T23:16:49.967Z,101424.84
2023-06-22T23:21:12.064Z,101434.47
2023-06-22T23:25:56.630Z,101417.22
2023-06-22T23:30:19.050Z,101434.97
2023-06-22T23:34:35.473Z,101431.38
2023-06-22T23:39:56.749Z,101455.50
2023-06-22T23:45:13.295Z,101421.28
2023-06-22T23:55:11.680Z,101422.78
